createdAt,value
2016-05-19T00:00:56.073Z,1002.35
2016-05-19T00:01:56.106Z,1002.37
2016-05-19T00:02:56.125Z,1002.33
2016-05-19T00:03:56.159Z,1002.34
2016-05-19T00:04:56.176Z,1002.33
2016-05-19T00:05:56.195Z,1002.28
2016-05-19T00:06:56.228Z,1002.33
2016-05-19T00:07:56.247Z,1002.34
2016-05-19T00:08:56.281Z,1002.33
2016-05-19T00:09:56.300Z,1002.35
2016-05-19T00:10:56.318Z,1002.31
2016-05-19T00:11:56.352Z,1002.28
2016-05-19T00:12:56.370Z,1002.26
2016-05-19T00:13:56.405Z,1002.31
2016-05-19T00:14:56.423Z,1002.26
2016-05-19T00:15:56.441Z,1002.28
2016-05-19T00:16:56.475Z,1002.29
2016-05-19T00:17:56.494Z,1002.32
2016-05-19T00:18:56.527Z,1002.3
2016-05-19T00:19:57.249Z,1002.34
2016-05-19T00:20:56.563Z,1002.34
2016-05-19T00:21:56.597Z,1002.35
2016-05-19T00:22:57.335Z,1002.34
2016-05-19T00:23:56.649Z,1002.33
2016-05-19T00:24:56.669Z,1002.32
2016-05-19T00:25:56.687Z,1002.36
2016-05-19T00:26:56.720Z,1002.34
2016-05-19T00:27:56.738Z,1002.31
2016-05-19T00:28:56.773Z,1002.38
2016-05-19T00:29:56.791Z,1002.37
2016-05-19T00:30:56.809Z,1002.39
2016-05-19T00:31:56.843Z,1002.38
2016-05-19T00:32:56.861Z,1002.45
2016-05-19T00:33:56.895Z,1002.47
2016-05-19T00:34:56.914Z,1002.46
2016-05-19T00:35:56.932Z,1002.46
2016-05-19T00:36:56.967Z,1002.49
2016-05-19T00:37:56.984Z,1002.48
2016-05-19T00:38:57.018Z,1002.52
2016-05-19T00:39:57.037Z,1002.52
2016-05-19T00:40:57.070Z,1002.53
2016-05-19T00:41:57.089Z,1002.52
2016-05-19T00:42:57.108Z,1002.57
2016-05-19T00:43:57.141Z,1002.56
2016-05-19T00:44:57.159Z,1002.59
2016-05-19T00:45:57.178Z,1002.6
2016-05-19T00:46:57.211Z,1002.63
2016-05-19T00:47:57.230Z,1002.61
2016-05-19T00:48:57.249Z,1002.64
2016-05-19T00:49:57.282Z,1002.58
2016-05-19T00:50:57.300Z,1002.63
2016-05-19T00:51:57.335Z,1002.61
2016-05-19T00:52:57.352Z,1002.57
2016-05-19T00:53:57.371Z,1002.63
2016-05-19T00:54:57.405Z,1002.62
2016-05-19T00:55:57.424Z,1002.6
2016-05-19T00:56:57.458Z,1002.61
2016-05-19T00:57:57.476Z,1002.56
2016-05-19T00:58:57.509Z,1002.57
2016-05-19T00:59:57.529Z,1002.57
2016-05-19T01:00:57.546Z,1002.57
2016-05-19T01:01:57.579Z,1002.59
2016-05-19T01:02:57.598Z,1002.63
2016-05-19T01:03:57.632Z,1002.55
2016-05-19T01:04:57.651Z,1002.62
2016-05-19T01:05:57.670Z,1002.58
2016-05-19T01:06:57.703Z,1002.61
2016-05-19T01:07:57.721Z,1002.63
2016-05-19T01:08:57.740Z,1002.63
2016-05-19T01:09:57.773Z,1002.67
2016-05-19T01:10:57.792Z,1002.64
2016-05-19T01:11:57.825Z,1002.68
2016-05-19T01:12:57.844Z,1002.66
2016-05-19T01:13:57.862Z,1002.73
2016-05-19T01:14:57.897Z,1002.64
2016-05-19T01:15:57.914Z,1002.66
2016-05-19T01:16:57.949Z,1002.64
2016-05-19T01:17:57.967Z,1002.61
2016-05-19T01:18:57.986Z,1002.65
2016-05-19T01:19:58.019Z,1002.67
2016-05-19T01:20:58.037Z,1002.73
2016-05-19T01:21:58.072Z,1002.71
2016-05-19T01:22:58.091Z,1002.76
2016-05-19T01:23:58.108Z,1002.76
2016-05-19T01:24:58.141Z,1002.7
2016-05-19T01:25:58.160Z,1002.77
2016-05-19T01:26:58.179Z,1002.71
2016-05-19T01:27:58.213Z,1002.79
2016-05-19T01:28:58.231Z,1002.77
2016-05-19T01:29:58.265Z,1002.83
2016-05-19T01:30:58.283Z,1002.83
2016-05-19T01:31:58.317Z,1002.84
2016-05-19T01:32:58.335Z,1002.86
2016-05-19T01:33:58.354Z,1002.87
2016-05-19T01:34:58.387Z,1002.83
2016-05-19T01:35:58.406Z,1002.9
2016-05-19T01:36:58.424Z,1002.9
2016-05-19T01:37:58.458Z,1002.88
2016-05-19T01:38:58.477Z,1002.9
2016-05-19T01:39:58.510Z,1002.89
2016-05-19T01:40:58.528Z,1002.89
2016-05-19T01:41:58.547Z,1002.91
2016-05-19T01:42:58.581Z,1002.94
2016-05-19T01:43:58.600Z,1002.96
2016-05-19T01:44:58.634Z,1002.94
2016-05-19T01:45:58.652Z,1002.99
2016-05-19T01:46:58.670Z,1002.98
2016-05-19T01:47:58.703Z,1003.04
2016-05-19T01:48:58.722Z,1002.98
2016-05-19T01:49:58.756Z,1003.05
2016-05-19T01:50:58.775Z,1003.01
2016-05-19T01:51:58.793Z,1003.05
2016-05-19T01:52:58.827Z,1003.02
2016-05-19T01:53:58.845Z,1003.04
2016-05-19T01:54:58.879Z,1003.02
2016-05-19T01:55:58.897Z,1002.99
2016-05-19T01:56:58.916Z,1003
2016-05-19T01:57:58.949Z,1003.06
2016-05-19T01:58:58.968Z,1003.04
2016-05-19T01:59:59.002Z,1003
2016-05-19T02:00:59.020Z,1003.02
2016-05-19T02:01:59.038Z,1002.99
2016-05-19T02:02:59.072Z,1002.99
2016-05-19T02:03:59.090Z,1003
2016-05-19T02:04:59.110Z,1003
2016-05-19T02:05:59.143Z,1003.02
2016-05-19T02:06:59.161Z,1003.05
2016-05-19T02:07:59.179Z,1003.05
2016-05-19T02:08:59.214Z,1002.99
2016-05-19T02:09:59.248Z,1003.07
2016-05-19T02:10:59.266Z,1003.09
2016-05-19T02:11:59.284Z,1003.05
2016-05-19T02:12:59.303Z,1003.04
2016-05-19T02:13:59.337Z,1003.05
2016-05-19T02:14:59.355Z,1003.09
2016-05-19T02:15:59.389Z,1003.1
2016-05-19T02:16:59.406Z,1003.12
2016-05-19T02:17:59.425Z,1003.13
2016-05-19T02:18:59.459Z,1003.16
2016-05-19T02:19:59.477Z,1003.12
2016-05-19T02:20:59.496Z,1003.11
2016-05-19T02:21:59.530Z,1003.15
2016-05-19T02:22:59.547Z,1003.11
2016-05-19T02:23:59.582Z,1003.14
2016-05-19T02:24:59.592Z,1003.16
2016-05-19T02:25:59.627Z,1003.19
2016-05-19T02:26:59.644Z,1003.19
2016-05-19T02:27:59.679Z,1003.22
2016-05-19T02:28:59.713Z,1003.23
2016-05-19T02:29:59.731Z,1003.22
2016-05-19T02:30:59.749Z,1003.2
2016-05-19T02:31:59.768Z,1003.23
2016-05-19T02:32:59.801Z,1003.24
2016-05-19T02:33:59.820Z,1003.24
2016-05-19T02:34:59.838Z,1003.23
2016-05-19T02:35:59.872Z,1003.22
2016-05-19T02:36:59.906Z,1003.27
2016-05-19T02:37:59.924Z,1003.23
2016-05-19T02:38:59.943Z,1003.22
2016-05-19T02:39:59.961Z,1003.29
2016-05-19T02:41:00.023Z,1003.27
2016-05-19T02:42:00.084Z,1003.26
2016-05-19T02:43:00.146Z,1003.26
2016-05-19T02:44:00.224Z,1003.29
2016-05-19T02:45:00.286Z,1003.35
2016-05-19T02:46:00.344Z,1003.29
2016-05-19T02:47:00.379Z,1003.3
2016-05-19T02:48:00.411Z,1003.32
2016-05-19T02:49:00.462Z,1003.31
2016-05-19T02:50:00.495Z,1003.34
2016-05-19T02:51:00.522Z,1003.36
2016-05-19T02:52:00.562Z,1003.35
2016-05-19T02:53:00.587Z,1003.39
2016-05-19T02:54:00.625Z,1003.41
2016-05-19T02:55:00.650Z,1003.44
2016-05-19T02:56:00.671Z,1003.41
2016-05-19T02:57:00.708Z,1003.45
2016-05-19T02:58:00.727Z,1003.44
2016-05-19T02:59:00.748Z,1003.41
2016-05-19T03:00:00.784Z,1003.47
2016-05-19T03:01:00.804Z,1003.46
2016-05-19T03:02:00.838Z,1003.46
2016-05-19T03:03:00.857Z,1003.5
2016-05-19T03:04:00.876Z,1003.47
2016-05-19T03:05:00.910Z,1003.49
2016-05-19T03:06:00.930Z,1003.44
2016-05-19T03:07:00.964Z,1003.45
2016-05-19T03:08:00.982Z,1003.5
2016-05-19T03:09:01.002Z,1003.53
2016-05-19T03:10:01.035Z,1003.55
2016-05-19T03:11:01.053Z,1003.56
2016-05-19T03:12:01.072Z,1003.57
2016-05-19T03:13:01.106Z,1003.58
2016-05-19T03:14:01.125Z,1003.61
2016-05-19T03:15:01.159Z,1003.59
2016-05-19T03:16:01.177Z,1003.62
2016-05-19T03:17:01.195Z,1003.68
2016-05-19T03:18:01.230Z,1003.65
2016-05-19T03:19:01.247Z,1003.67
2016-05-19T03:20:01.266Z,1003.65
2016-05-19T03:21:01.300Z,1003.7
2016-05-19T03:22:01.318Z,1003.72
2016-05-19T03:23:01.352Z,1003.73
2016-05-19T03:24:01.370Z,1003.74
2016-05-19T03:25:01.388Z,1003.73
2016-05-19T03:26:01.423Z,1003.74
2016-05-19T03:27:01.440Z,1003.76
2016-05-19T03:28:01.459Z,1003.78
2016-05-19T03:29:01.493Z,1003.8
2016-05-19T03:30:01.512Z,1003.81
2016-05-19T03:31:01.529Z,1003.8
2016-05-19T03:32:01.564Z,1003.75
2016-05-19T03:33:01.582Z,1003.77
2016-05-19T03:34:01.616Z,1003.79
2016-05-19T03:35:01.635Z,1003.79
2016-05-19T03:36:01.653Z,1003.75
2016-05-19T03:37:01.687Z,1003.75
2016-05-19T03:38:01.705Z,1003.78
2016-05-19T03:39:01.738Z,1003.83
2016-05-19T03:40:01.757Z,1003.82
2016-05-19T03:41:01.775Z,1003.83
2016-05-19T03:42:01.794Z,1003.84
2016-05-19T03:43:01.827Z,1003.88
2016-05-19T03:44:01.846Z,1003.95
2016-05-19T03:45:01.880Z,1003.93
2016-05-19T03:46:01.897Z,1003.95
2016-05-19T03:47:01.916Z,1004.01
2016-05-19T03:48:01.950Z,1003.98
2016-05-19T03:49:01.969Z,1004
2016-05-19T03:50:01.988Z,1004.02
2016-05-19T03:51:02.021Z,1004.01
2016-05-19T03:52:02.039Z,1004.02
2016-05-19T03:53:02.074Z,1004.06
2016-05-19T03:54:02.092Z,1004.04
2016-05-19T03:55:02.110Z,1004.03
2016-05-19T03:56:02.144Z,1004.05
2016-05-19T03:57:02.162Z,1004.1
2016-05-19T03:58:02.180Z,1004.1
2016-05-19T03:59:02.215Z,1004.13
2016-05-19T04:00:02.232Z,1004.14
2016-05-19T04:01:02.267Z,1004.16
2016-05-19T04:02:02.284Z,1004.15
2016-05-19T04:03:02.303Z,1004.17
2016-05-19T04:04:02.337Z,1004.18
2016-05-19T04:05:02.356Z,1004.18
2016-05-19T04:06:02.373Z,1004.19
2016-05-19T04:07:02.408Z,1004.17
2016-05-19T04:08:02.426Z,1004.21
2016-05-19T04:09:02.445Z,1004.2
2016-05-19T04:10:02.479Z,1004.24
2016-05-19T04:11:02.497Z,1004.25
2016-05-19T04:12:02.531Z,1004.25
2016-05-19T04:13:02.550Z,1004.25
2016-05-19T04:14:02.567Z,1004.26
2016-05-19T04:15:02.600Z,1004.28
2016-05-19T04:16:02.619Z,1004.25
2016-05-19T04:17:02.638Z,1004.31
2016-05-19T04:18:02.672Z,1004.3
2016-05-19T04:19:02.690Z,1004.33
2016-05-19T04:20:02.724Z,1004.37
2016-05-19T04:21:02.741Z,1004.31
2016-05-19T04:22:02.760Z,1004.35
2016-05-19T04:23:02.779Z,1004.31
2016-05-19T04:24:02.813Z,1004.34
2016-05-19T04:25:02.832Z,1004.35
2016-05-19T04:26:02.865Z,1004.37
2016-05-19T04:27:02.883Z,1004.34
2016-05-19T04:28:02.902Z,1004.34
2016-05-19T04:29:02.936Z,1004.36
2016-05-19T04:30:02.954Z,1004.38
2016-05-19T04:31:02.973Z,1004.36
2016-05-19T04:32:03.007Z,1004.38
2016-05-19T04:33:03.024Z,1004.4
2016-05-19T04:34:03.043Z,1004.42
2016-05-19T04:35:03.076Z,1004.45
2016-05-19T04:36:03.095Z,1004.41
2016-05-19T04:37:03.129Z,1004.42
2016-05-19T04:38:03.147Z,1004.41
2016-05-19T04:39:03.166Z,1004.45
2016-05-19T04:40:03.200Z,1004.46
2016-05-19T04:41:03.217Z,1004.47
2016-05-19T04:42:03.237Z,1004.51
2016-05-19T04:43:03.255Z,1004.52
2016-05-19T04:44:03.289Z,1004.58
2016-05-19T04:45:03.322Z,1004.59
2016-05-19T04:46:03.341Z,1004.57
2016-05-19T04:47:03.358Z,1004.6
2016-05-19T04:48:03.394Z,1004.62
2016-05-19T04:49:03.411Z,1004.67
2016-05-19T04:50:03.430Z,1004.7
2016-05-19T04:51:03.448Z,1004.73
2016-05-19T04:52:03.482Z,1004.76
2016-05-19T04:53:03.766Z,1004.75
2016-05-19T04:54:03.518Z,1004.74
2016-05-19T04:55:03.553Z,1004.81
2016-05-19T04:56:03.571Z,1004.79
2016-05-19T04:57:03.604Z,1004.84
2016-05-19T04:58:03.624Z,1004.84
2016-05-19T04:59:03.641Z,1004.87
2016-05-19T05:00:03.676Z,1004.88
2016-05-19T05:01:03.694Z,1004.87
2016-05-19T05:02:03.727Z,1004.98
2016-05-19T05:03:03.746Z,1004.96
2016-05-19T05:04:03.764Z,1004.99
2016-05-19T05:05:03.782Z,1004.99
2016-05-19T05:06:03.817Z,1005
2016-05-19T05:07:03.835Z,1004.99
2016-05-19T05:08:04.290Z,1004.98
2016-05-19T05:09:03.887Z,1005.04
2016-05-19T05:10:03.906Z,1005.06
2016-05-19T05:11:03.939Z,1005.12
2016-05-19T05:12:03.958Z,1005.14
2016-05-19T05:13:03.976Z,1005.13
2016-05-19T05:14:04.010Z,1005.17
2016-05-19T05:15:04.028Z,1005.19
2016-05-19T05:16:04.062Z,1005.19
2016-05-19T05:17:04.081Z,1005.24
2016-05-19T05:18:04.099Z,1005.21
2016-05-19T05:19:04.133Z,1005.22
2016-05-19T05:20:04.151Z,1005.19
2016-05-19T05:21:04.169Z,1005.27
2016-05-19T05:22:04.203Z,1005.24
2016-05-19T05:23:04.221Z,1005.27
2016-05-19T05:24:04.240Z,1005.32
2016-05-19T05:25:04.275Z,1005.32
2016-05-19T05:26:04.292Z,1005.36
2016-05-19T05:27:04.326Z,1005.38
2016-05-19T05:28:04.344Z,1005.38
2016-05-19T05:29:04.379Z,1005.43
2016-05-19T05:30:04.397Z,1005.46
2016-05-19T05:31:04.430Z,1005.49
2016-05-19T05:32:04.449Z,1005.42
2016-05-19T05:33:04.468Z,1005.45
2016-05-19T05:34:04.501Z,1005.41
2016-05-19T05:35:04.520Z,1005.43
2016-05-19T05:36:04.554Z,1005.43
2016-05-19T05:37:04.571Z,1005.46
2016-05-19T05:38:04.606Z,1005.49
2016-05-19T05:39:04.624Z,1005.45
2016-05-19T05:40:04.643Z,1005.48
2016-05-19T05:41:04.676Z,1005.49
2016-05-19T05:42:04.695Z,1005.55
2016-05-19T05:43:04.729Z,1005.56
2016-05-19T05:44:04.748Z,1005.58
2016-05-19T05:45:04.781Z,1005.61
2016-05-19T05:46:04.800Z,1005.58
2016-05-19T05:47:04.833Z,1005.6
2016-05-19T05:48:04.851Z,1005.65
2016-05-19T05:49:04.885Z,1005.67
2016-05-19T05:50:04.904Z,1005.67
2016-05-19T05:51:04.938Z,1005.74
2016-05-19T05:52:04.972Z,1005.72
2016-05-19T05:53:06.069Z,1005.78
2016-05-19T05:54:05.008Z,1005.79
2016-05-19T05:55:05.042Z,1005.77
2016-05-19T05:56:05.061Z,1005.78
2016-05-19T05:57:05.094Z,1005.76
2016-05-19T05:58:05.113Z,1005.8
2016-05-19T05:59:05.146Z,1005.78
2016-05-19T06:00:05.180Z,1005.81
2016-05-19T06:01:05.199Z,1005.84
2016-05-19T06:02:05.218Z,1005.83
2016-05-19T06:03:05.252Z,1005.82
2016-05-19T06:04:05.285Z,1005.75
2016-05-19T06:05:05.304Z,1005.79
2016-05-19T06:06:05.338Z,1005.81
2016-05-19T06:07:05.356Z,1005.85
2016-05-19T06:08:05.390Z,1005.85
2016-05-19T06:09:05.407Z,1005.84
2016-05-19T06:10:05.442Z,1005.86
2016-05-19T06:11:05.460Z,1005.9
2016-05-19T06:12:05.509Z,1005.96
2016-05-19T06:13:05.528Z,1005.96
2016-05-19T06:14:05.546Z,1005.98
2016-05-19T06:15:05.581Z,1006.03
2016-05-19T06:16:05.599Z,1006.01
2016-05-19T06:17:05.633Z,1006.02
2016-05-19T06:18:05.651Z,1006.04
2016-05-19T06:19:05.684Z,1006.03
2016-05-19T06:20:05.719Z,1006.05
2016-05-19T06:21:05.736Z,1006.1
2016-05-19T06:22:05.772Z,1006.1
2016-05-19T06:23:05.789Z,1006.1
2016-05-19T06:24:05.823Z,1006.09
2016-05-19T06:25:05.842Z,1006.11
2016-05-19T06:26:05.876Z,1006.1
2016-05-19T06:27:05.910Z,1006.08
2016-05-19T06:28:05.927Z,1006.1
2016-05-19T06:29:05.961Z,1006.11
2016-05-19T06:30:05.980Z,1006.12
2016-05-19T06:31:06.013Z,1006.1
2016-05-19T06:32:06.049Z,1006.15
2016-05-19T06:33:06.066Z,1006.17
2016-05-19T06:34:06.100Z,1006.2
2016-05-19T06:35:06.135Z,1006.18
2016-05-19T06:36:06.152Z,1006.23
2016-05-19T06:37:06.187Z,1006.24
2016-05-19T06:38:06.204Z,1006.26
2016-05-19T06:39:06.238Z,1006.24
2016-05-19T06:40:06.273Z,1006.26
2016-05-19T06:41:06.291Z,1006.29
2016-05-19T06:42:06.325Z,1006.3
2016-05-19T06:43:06.343Z,1006.28
2016-05-19T06:44:06.377Z,1006.32
2016-05-19T06:45:06.412Z,1006.34
2016-05-19T06:46:06.445Z,1006.38
2016-05-19T06:47:06.464Z,1006.41
2016-05-19T06:48:06.498Z,1006.44
2016-05-19T06:49:06.515Z,1006.44
2016-05-19T06:50:06.549Z,1006.47
2016-05-19T06:51:06.583Z,1006.49
2016-05-19T06:52:06.602Z,1006.51
2016-05-19T06:53:06.636Z,1006.53
2016-05-19T06:54:06.654Z,1006.49
2016-05-19T06:55:06.688Z,1006.51
2016-05-19T06:56:06.722Z,1006.53
2016-05-19T06:57:06.756Z,1006.57
2016-05-19T06:58:06.775Z,1006.6
2016-05-19T06:59:06.807Z,1006.54
2016-05-19T07:00:06.842Z,1006.59
2016-05-19T07:01:06.860Z,1006.6
2016-05-19T07:02:06.894Z,1006.62
2016-05-19T07:03:06.927Z,1006.64
2016-05-19T07:04:06.946Z,1006.66
2016-05-19T07:05:06.980Z,1006.7
2016-05-19T07:06:07.015Z,1006.67
2016-05-19T07:07:07.032Z,1006.69
2016-05-19T07:08:07.066Z,1006.72
2016-05-19T07:09:07.101Z,1006.73
2016-05-19T07:10:07.118Z,1006.76
2016-05-19T07:11:07.153Z,1006.77
2016-05-19T07:12:07.187Z,1006.8
2016-05-19T07:13:07.220Z,1006.82
2016-05-19T07:14:07.239Z,1006.8
2016-05-19T07:15:07.273Z,1006.89
2016-05-19T07:16:07.291Z,1006.9
2016-05-19T07:17:07.325Z,1006.89
2016-05-19T07:18:07.359Z,1006.91
2016-05-19T07:19:07.393Z,1006.93
2016-05-19T07:20:07.411Z,1006.95
2016-05-19T07:21:07.445Z,1006.95
2016-05-19T07:22:07.479Z,1006.96
2016-05-19T07:23:07.497Z,1006.97
2016-05-19T07:24:07.531Z,1007.01
2016-05-19T07:25:07.566Z,1007.01
2016-05-19T07:26:07.600Z,1007.04
2016-05-19T07:27:07.617Z,1007.04
2016-05-19T07:28:07.652Z,1007.06
2016-05-19T07:29:07.686Z,1007.09
2016-05-19T07:30:07.720Z,1007.1
2016-05-19T07:31:07.738Z,1007.1
2016-05-19T07:32:07.788Z,1007.14
2016-05-19T07:33:07.805Z,1007.17
2016-05-19T07:34:07.824Z,1007.16
2016-05-19T07:35:07.858Z,1007.19
2016-05-19T07:36:08.189Z,1007.19
2016-05-19T07:37:07.926Z,1007.23
2016-05-19T07:38:08.226Z,1007.24
2016-05-19T07:39:07.978Z,1007.26
2016-05-19T07:40:08.012Z,1007.25
2016-05-19T07:41:08.030Z,1007.3
2016-05-19T07:42:08.064Z,1007.3
2016-05-19T07:43:08.098Z,1007.32
2016-05-19T07:44:08.132Z,1007.3
2016-05-19T07:45:08.150Z,1007.26
2016-05-19T07:46:08.185Z,1007.25
2016-05-19T07:47:08.218Z,1007.25
2016-05-19T07:48:08.236Z,1007.27
2016-05-19T07:49:08.287Z,1007.31
2016-05-19T07:50:08.305Z,1007.32
2016-05-19T07:51:08.339Z,1007.3
2016-05-19T07:52:08.373Z,1007.32
2016-05-19T07:53:08.391Z,1007.27
2016-05-19T07:54:08.425Z,1007.32
2016-05-19T07:55:08.442Z,1007.29
2016-05-19T07:56:08.477Z,1007.32
2016-05-19T07:57:08.511Z,1007.29
2016-05-19T07:58:08.530Z,1007.31
2016-05-19T07:59:08.563Z,1007.33
2016-05-19T08:00:08.581Z,1007.35
2016-05-19T08:01:08.616Z,1007.37
2016-05-19T08:02:08.649Z,1007.37
2016-05-19T08:03:08.668Z,1007.43
2016-05-19T08:04:08.701Z,1007.42
2016-05-19T08:05:08.735Z,1007.45
2016-05-19T08:06:08.769Z,1007.4
2016-05-19T08:07:08.788Z,1007.44
2016-05-19T08:08:08.822Z,1007.42
2016-05-19T08:09:08.856Z,1007.48
2016-05-19T08:10:08.874Z,1007.48
2016-05-19T08:11:08.908Z,1007.48
2016-05-19T08:12:08.942Z,1007.5
2016-05-19T08:13:08.960Z,1007.47
2016-05-19T08:14:08.994Z,1007.48
2016-05-19T08:15:09.028Z,1007.53
2016-05-19T08:16:09.046Z,1007.52
2016-05-19T08:17:09.081Z,1007.5
2016-05-19T08:18:09.115Z,1007.52
2016-05-19T08:19:09.132Z,1007.55
2016-05-19T08:20:09.167Z,1007.54
2016-05-19T08:21:09.200Z,1007.56
2016-05-19T08:22:09.234Z,1007.54
2016-05-19T08:23:09.253Z,1007.53
2016-05-19T08:24:09.286Z,1007.56
2016-05-19T08:25:09.305Z,1007.55
2016-05-19T08:26:09.338Z,1007.55
2016-05-19T08:27:09.372Z,1007.59
2016-05-19T08:28:09.391Z,1007.62
2016-05-19T08:29:09.425Z,1007.61
2016-05-19T08:30:09.459Z,1007.63
2016-05-19T08:31:09.477Z,1007.65
2016-05-19T08:32:09.511Z,1007.66
2016-05-19T08:33:09.545Z,1007.62
2016-05-19T08:34:09.563Z,1007.65
2016-05-19T08:35:09.598Z,1007.67
2016-05-19T08:36:09.616Z,1007.69
2016-05-19T08:37:09.666Z,1007.7
2016-05-19T08:38:09.683Z,1007.72
2016-05-19T08:39:09.702Z,1007.7
2016-05-19T08:40:09.735Z,1007.73
2016-05-19T08:41:09.770Z,1007.7
2016-05-19T08:42:09.788Z,1007.72
2016-05-19T08:43:09.822Z,1007.77
2016-05-19T08:44:09.857Z,1007.74
2016-05-19T08:45:09.874Z,1007.75
2016-05-19T08:46:09.909Z,1007.81
2016-05-19T08:47:09.942Z,1007.82
2016-05-19T08:48:09.960Z,1007.82
2016-05-19T08:49:09.994Z,1007.86
2016-05-19T08:50:10.028Z,1007.82
2016-05-19T08:51:10.047Z,1007.86
2016-05-19T08:52:10.081Z,1007.88
2016-05-19T08:53:10.114Z,1007.92
2016-05-19T08:54:10.133Z,1007.9
2016-05-19T08:55:10.292Z,1007.89
2016-05-19T08:56:10.186Z,1007.93
2016-05-19T08:57:10.219Z,1007.91
2016-05-19T08:58:10.253Z,1007.93
2016-05-19T08:59:10.271Z,1007.99
2016-05-19T09:00:10.305Z,1007.99
2016-05-19T09:01:10.339Z,1007.97
2016-05-19T09:02:10.358Z,1008.05
2016-05-19T09:03:10.392Z,1008.01
2016-05-19T09:04:10.425Z,1008.07
2016-05-19T09:05:10.444Z,1008.1
2016-05-19T09:06:10.478Z,1008.08
2016-05-19T09:07:10.496Z,1008.1
2016-05-19T09:08:10.529Z,1008.09
2016-05-19T09:09:10.563Z,1008.1
2016-05-19T09:10:10.582Z,1008.14
2016-05-19T09:11:10.616Z,1008.12
2016-05-19T09:12:10.649Z,1008.12
2016-05-19T09:13:10.669Z,1008.16
2016-05-19T09:14:10.702Z,1008.16
2016-05-19T09:15:10.736Z,1008.17
2016-05-19T09:16:10.755Z,1008.19
2016-05-19T09:17:10.788Z,1008.17
2016-05-19T09:18:10.823Z,1008.19
2016-05-19T09:19:10.840Z,1008.16
2016-05-19T09:20:10.876Z,1008.23
2016-05-19T09:21:10.893Z,1008.27
2016-05-19T09:22:10.926Z,1008.26
2016-05-19T09:23:10.961Z,1008.26
2016-05-19T09:24:10.995Z,1008.33
2016-05-19T09:25:11.014Z,1008.34
2016-05-19T09:26:11.047Z,1008.36
2016-05-19T09:27:11.065Z,1008.38
2016-05-19T09:28:11.099Z,1008.38
2016-05-19T09:29:11.133Z,1008.37
2016-05-19T09:30:11.152Z,1008.36
2016-05-19T09:31:11.186Z,1008.41
2016-05-19T09:32:11.204Z,1008.41
2016-05-19T09:33:11.238Z,1008.38
2016-05-19T09:34:11.272Z,1008.39
2016-05-19T09:35:11.290Z,1008.42
2016-05-19T09:36:11.324Z,1008.42
2016-05-19T09:37:11.341Z,1008.5
2016-05-19T09:38:11.377Z,1008.49
2016-05-19T09:39:11.411Z,1008.45
2016-05-19T09:40:11.429Z,1008.46
2016-05-19T09:41:11.463Z,1008.46
2016-05-19T09:42:11.480Z,1008.51
2016-05-19T09:43:11.515Z,1008.48
2016-05-19T09:44:11.549Z,1008.48
2016-05-19T09:45:11.567Z,1008.47
2016-05-19T09:46:11.601Z,1008.52
2016-05-19T09:47:11.635Z,1008.51
2016-05-19T09:48:11.654Z,1008.56
2016-05-19T09:49:11.687Z,1008.56
2016-05-19T09:50:11.706Z,1008.55
2016-05-19T09:51:11.740Z,1008.58
2016-05-19T09:52:11.773Z,1008.59
2016-05-19T09:53:11.792Z,1008.61
2016-05-19T09:54:12.248Z,1008.62
2016-05-19T09:55:11.859Z,1008.66
2016-05-19T09:56:11.878Z,1008.62
2016-05-19T09:57:11.912Z,1008.7
2016-05-19T09:58:11.930Z,1008.67
2016-05-19T09:59:11.964Z,1008.7
2016-05-19T10:00:11.998Z,1008.75
2016-05-19T10:01:12.016Z,1008.81
2016-05-19T10:02:12.050Z,1008.77
2016-05-19T10:03:12.084Z,1008.79
2016-05-19T10:04:12.103Z,1008.8
2016-05-19T10:05:12.136Z,1008.8
2016-05-19T10:06:12.155Z,1008.78
2016-05-19T10:07:12.189Z,1008.82
2016-05-19T10:08:12.208Z,1008.83
2016-05-19T10:09:12.241Z,1008.82
2016-05-19T10:10:12.275Z,1008.83
2016-05-19T10:11:12.293Z,1008.83
2016-05-19T10:12:12.327Z,1008.82
2016-05-19T10:13:12.361Z,1008.84
2016-05-19T10:14:12.380Z,1008.86
2016-05-19T10:15:12.413Z,1008.85
2016-05-19T10:16:12.447Z,1008.86
2016-05-19T10:17:12.466Z,1008.86
2016-05-19T10:18:12.499Z,1008.93
2016-05-19T10:19:12.534Z,1008.91
2016-05-19T10:20:12.552Z,1008.95
2016-05-19T10:21:12.571Z,1008.96
2016-05-19T10:22:12.604Z,1008.96
2016-05-19T10:23:12.638Z,1008.99
2016-05-19T10:24:12.656Z,1009
2016-05-19T10:25:12.690Z,1008.99
2016-05-19T10:26:12.724Z,1009.03
2016-05-19T10:27:12.743Z,1009.07
2016-05-19T10:28:12.776Z,1009.02
2016-05-19T10:29:12.811Z,1009.07
2016-05-19T10:30:12.829Z,1009
2016-05-19T10:31:12.862Z,1009.05
2016-05-19T10:32:12.881Z,1009.08
2016-05-19T10:33:12.915Z,1009.13
2016-05-19T10:34:12.934Z,1009.09
2016-05-19T10:35:12.967Z,1009.08
2016-05-19T10:36:13.001Z,1009.11
2016-05-19T10:37:13.019Z,1009.15
2016-05-19T10:38:13.053Z,1009.13
2016-05-19T10:39:13.072Z,1009.12
2016-05-19T10:40:13.106Z,1009.11
2016-05-19T10:41:13.139Z,1009.11
2016-05-19T10:42:13.158Z,1009.13
2016-05-19T10:43:13.192Z,1009.1
2016-05-19T10:44:13.226Z,1009.12
2016-05-19T10:45:13.244Z,1009.05
2016-05-19T10:46:13.278Z,1009.14
2016-05-19T10:47:13.297Z,1009.13
2016-05-19T10:48:13.330Z,1009.13
2016-05-19T10:49:13.365Z,1009.13
2016-05-19T10:50:13.382Z,1009.14
2016-05-19T10:51:13.416Z,1009.11
2016-05-19T10:52:13.435Z,1009.17
2016-05-19T10:53:13.469Z,1009.13
2016-05-19T10:54:13.612Z,1009.14
2016-05-19T10:55:13.521Z,1009.14
2016-05-19T10:56:13.555Z,1009.15
2016-05-19T10:57:13.589Z,1009.19
2016-05-19T10:58:13.606Z,1009.18
2016-05-19T10:59:13.642Z,1009.25
2016-05-19T11:00:13.660Z,1009.22
2016-05-19T11:01:13.693Z,1009.27
2016-05-19T11:02:13.728Z,1009.26
2016-05-19T11:03:13.745Z,1009.26
2016-05-19T11:04:13.780Z,1009.2
2016-05-19T11:05:13.813Z,1009.22
2016-05-19T11:06:13.831Z,1009.21
2016-05-19T11:07:13.866Z,1009.25
2016-05-19T11:08:13.884Z,1009.27
2016-05-19T11:09:13.919Z,1009.29
2016-05-19T11:10:13.936Z,1009.29
2016-05-19T11:11:13.969Z,1009.28
2016-05-19T11:12:14.004Z,1009.31
2016-05-19T11:13:14.023Z,1009.31
2016-05-19T11:14:14.057Z,1009.36
2016-05-19T11:15:14.091Z,1009.36
2016-05-19T11:16:14.108Z,1009.35
2016-05-19T11:17:14.143Z,1009.36
2016-05-19T11:18:14.160Z,1009.36
2016-05-19T11:19:14.195Z,1009.41
2016-05-19T11:20:14.229Z,1009.44
2016-05-19T11:21:14.247Z,1009.37
2016-05-19T11:22:14.281Z,1009.43
2016-05-19T11:23:14.315Z,1009.39
2016-05-19T11:24:14.334Z,1009.41
2016-05-19T11:25:14.368Z,1009.44
2016-05-19T11:26:14.417Z,1009.43
2016-05-19T11:27:14.420Z,1009.48
2016-05-19T11:28:14.454Z,1009.42
2016-05-19T11:29:14.473Z,1009.39
2016-05-19T11:30:14.506Z,1009.47
2016-05-19T11:31:14.524Z,1009.44
2016-05-19T11:32:14.558Z,1009.44
2016-05-19T11:33:14.592Z,1009.45
2016-05-19T11:34:14.610Z,1009.47
2016-05-19T11:35:14.644Z,1009.49
2016-05-19T11:36:14.662Z,1009.52
2016-05-19T11:37:14.697Z,1009.48
2016-05-19T11:38:14.730Z,1009.54
2016-05-19T11:39:14.749Z,1009.54
2016-05-19T11:40:14.782Z,1009.51
2016-05-19T11:41:14.816Z,1009.54
2016-05-19T11:42:14.836Z,1009.53
2016-05-19T11:43:14.869Z,1009.54
2016-05-19T11:44:14.887Z,1009.55
2016-05-19T11:45:14.952Z,1009.55
2016-05-19T11:46:14.955Z,1009.55
2016-05-19T11:47:15.012Z,1009.58
2016-05-19T11:48:15.085Z,1009.56
2016-05-19T11:49:15.144Z,1009.57
2016-05-19T11:50:15.219Z,1009.56
2016-05-19T11:51:15.292Z,1009.6
2016-05-19T11:52:15.343Z,1009.62
2016-05-19T11:53:15.376Z,1009.6
2016-05-19T11:54:15.409Z,1009.58
2016-05-19T11:55:15.457Z,1009.64
2016-05-19T11:56:15.505Z,1009.62
2016-05-19T11:57:15.530Z,1009.62
2016-05-19T11:58:15.569Z,1009.65
2016-05-19T11:59:15.608Z,1009.62
2016-05-19T12:00:15.633Z,1009.66
2016-05-19T12:01:15.672Z,1009.7
2016-05-19T12:02:15.708Z,1009.67
2016-05-19T12:03:15.728Z,1009.65
2016-05-19T12:04:15.763Z,1009.66
2016-05-19T12:05:15.784Z,1009.66
2016-05-19T12:06:15.820Z,1009.68
2016-05-19T12:07:15.854Z,1009.7
2016-05-19T12:08:15.874Z,1009.69
2016-05-19T12:09:16.236Z,1009.71